Mapleton, Minnesota
Current Conditions -  °F | °C
As of 4:15 PM on Sunday 21 Dec 2014 (Local Time) from KMKT Reporting Station
Overcast Overcast  
Wind Chill: 30°   Ceiling: 200
Heat Index: 37°   Visibility: 1mi
Dew Point: 34°   Wind: 10mph
Humidity: 87%   Direction: 180°S
Pressure: 29.72"   Gusts: NA
Location:  43.93°N, 93.96°W
Report Text: KMKT 212215Z AUTO 18009KT 1SM OVC002 03/01 A2972 RMK AO1
Loading
Personal Weather Stations






























Interactive Weather Map New forecast layout! Learn more

10-Day Weather Forecast

Advertisements
Track Severe Weather on mobile